Terminal Aerodrome Forecast
Issued by NWS Wilmington, NC

Home | Current Version | Previous Version | Text Only | Print | Product List | Glossary On
Versions: 1 2 3 4 5 6 7 8 9 10 11 12 13 14 15 16 17
000
FTUS42 KILM 041131
TAFMYR
TAF
KMYR 041131Z 0412/0512 02007KT P6SM SCT030 SCT250
     FM041800 13009KT P6SM VCSH BKN050 BKN100
     FM042200 14008KT P6SM SCT045 SCT120
     FM050800 36007KT P6SM SCT020 SCT045
      TEMPO 0510/0512 BKN010=

USA.gov is the U.S. government's official web portal to all federal, state and local government web resources and services.